createdAt,value
2022-12-06T00:01:29.272Z,102043.72
2022-12-06T00:03:57.967Z,102047.84
2022-12-06T00:06:28.385Z,102058.63
2022-12-06T00:08:55.730Z,102058.75
2022-12-06T00:11:33.698Z,102049.28
2022-12-06T00:14:03.412Z,102058.66
2022-12-06T00:16:31.116Z,102057.06
2022-12-06T00:18:58.459Z,102063.34
2022-12-06T00:21:28.482Z,102051.91
2022-12-06T00:24:00.641Z,102054.34
2022-12-06T00:26:28.082Z,102058.91
2022-12-06T00:28:56.949Z,102055.16
2022-12-06T00:31:25.782Z,102054.22
2022-12-06T00:33:52.597Z,102056.00
2022-12-06T00:36:21.617Z,102055.88
2022-12-06T00:38:48.845Z,102055.63
2022-12-06T00:41:17.981Z,102055.63
2022-12-06T00:43:45.409Z,102059.84
2022-12-06T00:46:15.533Z,102056.38
2022-12-06T00:48:42.419Z,102045.56
2022-12-06T00:51:08.913Z,102060.47
2022-12-06T00:53:35.757Z,102060.47
2022-12-06T00:56:02.303Z,102062.72
2022-12-06T00:58:28.873Z,102051.31
2022-12-06T01:00:55.425Z,102040.84
2022-12-06T01:03:22.231Z,102046.72
2022-12-06T01:05:50.995Z,102040.84
2022-12-06T01:08:18.799Z,102044.22
2022-12-06T01:10:54.273Z,102039.78
2022-12-06T01:13:20.842Z,102042.66
2022-12-06T01:15:48.291Z,102042.53
2022-12-06T01:18:14.937Z,102034.59
2022-12-06T01:20:41.393Z,102042.41
2022-12-06T01:23:07.871Z,102039.66
2022-12-06T01:25:36.117Z,102033.50
2022-12-06T01:28:03.247Z,102034.34
2022-12-06T01:30:29.817Z,102037.72
2022-12-06T01:32:56.325Z,102030.00
2022-12-06T01:35:23.029Z,102017.28
2022-12-06T01:37:49.434Z,102026.53
2022-12-06T01:40:15.903Z,102028.47
2022-12-06T01:42:42.357Z,102026.88
2022-12-06T01:45:09.914Z,102023.56
2022-12-06T01:47:42.558Z,102022.09
2022-12-06T01:50:22.456Z,102026.31
2022-12-06T01:52:59.300Z,102027.88
2022-12-06T01:55:30.408Z,102022.69
2022-12-06T01:58:00.436Z,102027.03
2022-12-06T02:00:26.868Z,102026.91
2022-12-06T02:02:56.313Z,102023.28
2022-12-06T02:05:22.772Z,102027.50
2022-12-06T02:07:49.359Z,102037.97
2022-12-06T02:10:15.842Z,102036.06
2022-12-06T02:12:42.245Z,102030.63
2022-12-06T02:15:09.390Z,102028.84
2022-12-06T02:17:47.238Z,102040.13
2022-12-06T02:20:29.577Z,102039.31
2022-12-06T02:23:10.084Z,102034.00
2022-12-06T02:25:54.493Z,102029.44
2022-12-06T02:29:03.695Z,102020.06
2022-12-06T02:31:45.328Z,102021.72
2022-12-06T02:34:20.536Z,102030.63
2022-12-06T02:36:56.417Z,102037.59
2022-12-06T02:39:34.620Z,102017.53
2022-12-06T02:42:09.243Z,102031.50
2022-12-06T02:44:42.264Z,102023.69
2022-12-06T02:47:11.914Z,102020.19
2022-12-06T02:49:46.385Z,102019.31
2022-12-06T02:52:21.724Z,102018.38
2022-12-06T02:54:49.476Z,102006.94
2022-12-06T02:57:16.024Z,102011.16
2022-12-06T02:59:53.474Z,102012.84
2022-12-06T03:02:22.004Z,102003.94
2022-12-06T03:05:03.271Z,102011.88
2022-12-06T03:07:47.210Z,102010.19
2022-12-06T03:10:38.314Z,102012.84
2022-12-06T03:13:16.397Z,102013.78
2022-12-06T03:15:42.803Z,102007.81
2022-12-06T03:18:18.383Z,102009.72
2022-12-06T03:20:51.395Z,102002.97
2022-12-06T03:23:24.109Z,102012.03
2022-12-06T03:25:52.824Z,102015.72
2022-12-06T03:28:21.603Z,102007.06
2022-12-06T03:30:51.448Z,102013.59
2022-12-06T03:33:22.605Z,102009.63
2022-12-06T03:35:51.789Z,102000.34
2022-12-06T03:38:29.891Z,102004.09
2022-12-06T03:40:59.983Z,102000.59
2022-12-06T03:43:26.498Z,101994.59
2022-12-06T03:45:59.526Z,101984.38
2022-12-06T03:48:40.684Z,101987.28
2022-12-06T03:51:10.734Z,101992.78
2022-12-06T03:53:46.663Z,101994.22
2022-12-06T03:56:13.137Z,102001.56
2022-12-06T03:58:39.657Z,101994.84
2022-12-06T04:01:06.095Z,101994.56
2022-12-06T04:03:32.558Z,101995.91
2022-12-06T04:06:02.103Z,101998.41
2022-12-06T04:08:28.626Z,102001.03
2022-12-06T04:10:55.002Z,102006.56
2022-12-06T04:13:21.481Z,102011.13
2022-12-06T04:15:48.032Z,102008.22
2022-12-06T04:18:15.110Z,102022.22
2022-12-06T04:21:20.808Z,102009.28
2022-12-06T04:23:50.411Z,102015.97
2022-12-06T04:26:20.141Z,102015.97
2022-12-06T04:29:05.866Z,102015.59
2022-12-06T04:31:51.159Z,102013.41
2022-12-06T04:34:36.408Z,102005.69
2022-12-06T04:37:22.315Z,102014.47
2022-12-06T04:39:48.780Z,102006.66
2022-12-06T04:42:34.364Z,102002.72
2022-12-06T04:45:00.805Z,102001.41
2022-12-06T04:47:27.250Z,102000.22
2022-12-06T04:49:53.664Z,101999.75
2022-12-06T04:52:20.171Z,101971.78
2022-12-06T04:54:47.453Z,102002.41
2022-12-06T04:57:15.857Z,101993.53
2022-12-06T04:59:44.201Z,101994.16
2022-12-06T05:02:15.104Z,102000.03
2022-12-06T05:04:41.549Z,101986.59
2022-12-06T05:07:08.356Z,101993.34
2022-12-06T05:09:34.800Z,101982.88
2022-12-06T05:12:01.218Z,101984.69
2022-12-06T05:14:27.599Z,101977.34
2022-12-06T05:16:54.028Z,101978.13
2022-12-06T05:19:20.477Z,101978.50
2022-12-06T05:21:47.183Z,101972.22
2022-12-06T05:24:14.307Z,101978.78
2022-12-06T05:26:41.406Z,101978.59
2022-12-06T05:29:07.829Z,101980.63
2022-12-06T05:31:34.407Z,101979.66
2022-12-06T05:34:00.977Z,101984.53
2022-12-06T05:36:28.204Z,101988.16
2022-12-06T05:38:56.265Z,101989.44
2022-12-06T05:41:23.576Z,101980.91
2022-12-06T05:43:50.301Z,101988.34
2022-12-06T05:46:17.366Z,101980.69
2022-12-06T05:48:44.842Z,101989.69
2022-12-06T05:51:11.458Z,101987.84
2022-12-06T05:53:37.848Z,101981.56
2022-12-06T05:56:06.355Z,101970.28
2022-12-06T05:58:32.999Z,101974.38
2022-12-06T06:00:59.643Z,101974.28
2022-12-06T06:03:26.112Z,101980.91
2022-12-06T06:05:58.871Z,101978.25
2022-12-06T06:08:26.209Z,101984.22
2022-12-06T06:10:52.894Z,101978.81
2022-12-06T06:13:19.437Z,101963.91
2022-12-06T06:15:45.918Z,101985.78
2022-12-06T06:18:12.400Z,101976.13
2022-12-06T06:20:38.867Z,101984.38
2022-12-06T06:23:05.392Z,101988.06
2022-12-06T06:25:31.877Z,101970.75
2022-12-06T06:27:59.437Z,101976.78
2022-12-06T06:30:25.873Z,101982.63
2022-12-06T06:32:52.341Z,101979.56
2022-12-06T06:35:18.806Z,101980.22
2022-12-06T06:37:46.028Z,101974.72
2022-12-06T06:40:12.582Z,101983.38
2022-12-06T06:42:39.437Z,101964.00
2022-12-06T06:45:06.548Z,101972.00
2022-12-06T06:47:34.079Z,101965.03
2022-12-06T06:50:00.958Z,101978.31
2022-12-06T06:52:28.093Z,101969.59
2022-12-06T06:54:54.574Z,101965.69
2022-12-06T06:57:21.203Z,101965.91
2022-12-06T06:59:47.743Z,101970.13
2022-12-06T07:02:15.450Z,101968.63
2022-12-06T07:04:42.417Z,101974.78
2022-12-06T07:07:09.090Z,101966.66
2022-12-06T07:09:35.563Z,101972.84
2022-12-06T07:12:02.171Z,101967.91
2022-12-06T07:14:28.719Z,101953.69
2022-12-06T07:16:55.201Z,101956.53
2022-12-06T07:19:21.987Z,101967.28
2022-12-06T07:21:49.040Z,101972.69
2022-12-06T07:24:15.502Z,101964.13
2022-12-06T07:26:41.908Z,101966.66
2022-12-06T07:29:08.381Z,101963.72
2022-12-06T07:31:35.468Z,101964.97
2022-12-06T07:34:02.585Z,101968.03
2022-12-06T07:36:30.305Z,101974.25
2022-12-06T07:38:58.156Z,101974.56
2022-12-06T07:41:45.451Z,101971.59
2022-12-06T07:44:32.199Z,101980.56
2022-12-06T07:46:58.940Z,101968.88
2022-12-06T07:49:25.472Z,101975.81
2022-12-06T07:51:53.843Z,101976.69
2022-12-06T07:54:20.420Z,101980.44
2022-12-06T07:56:46.827Z,101981.59
2022-12-06T07:59:13.311Z,101986.13
2022-12-06T08:01:40.303Z,101981.19
2022-12-06T08:04:07.839Z,101977.50
2022-12-06T08:06:36.149Z,101980.25
2022-12-06T08:09:04.303Z,101985.63
2022-12-06T08:11:30.674Z,101978.97
2022-12-06T08:13:57.108Z,101989.09
2022-12-06T08:16:23.699Z,101986.78
2022-12-06T08:18:50.235Z,101982.44
2022-12-06T08:21:16.713Z,101981.38
2022-12-06T08:23:43.122Z,101985.66
2022-12-06T08:26:13.643Z,101987.44
2022-12-06T08:28:43.261Z,101987.00
2022-12-06T08:31:18.337Z,101981.78
2022-12-06T08:33:45.281Z,101985.84
2022-12-06T08:36:14.969Z,101975.53
2022-12-06T08:38:41.547Z,101992.97
2022-12-06T08:41:27.435Z,101987.25
2022-12-06T08:43:54.908Z,101985.84
2022-12-06T08:46:21.726Z,101981.63
2022-12-06T08:48:48.305Z,101984.66
2022-12-06T08:51:14.953Z,101983.56
2022-12-06T08:53:41.512Z,101983.47
2022-12-06T08:56:08.507Z,101989.03
2022-12-06T08:58:35.200Z,101991.94
2022-12-06T09:01:01.808Z,101988.81
2022-12-06T09:03:28.294Z,101986.56
2022-12-06T09:05:54.670Z,101986.84
2022-12-06T09:08:21.120Z,101993.34
2022-12-06T09:10:47.655Z,101990.94
2022-12-06T09:13:14.075Z,101989.03
2022-12-06T09:15:40.578Z,101995.03
2022-12-06T09:18:07.037Z,101992.28
2022-12-06T09:20:33.496Z,101992.16
2022-12-06T09:22:59.924Z,101986.75
2022-12-06T09:25:26.359Z,101991.06
2022-12-06T09:27:53.552Z,101991.81
2022-12-06T09:30:20.242Z,101980.63
2022-12-06T09:32:48.369Z,101987.13
2022-12-06T09:35:16.008Z,101987.00
2022-12-06T09:37:43.885Z,101995.06
2022-12-06T09:40:20.155Z,101986.50
2022-12-06T09:42:52.428Z,101998.53
2022-12-06T09:45:31.303Z,101991.81
2022-12-06T09:48:03.418Z,101986.31
2022-12-06T09:50:57.346Z,101993.75
2022-12-06T09:53:41.406Z,101987.00
2022-12-06T09:56:22.826Z,101987.63
2022-12-06T09:59:02.598Z,101987.97
2022-12-06T10:01:36.841Z,101984.75
2022-12-06T10:04:22.564Z,101985.91
2022-12-06T10:07:06.831Z,101984.59
2022-12-06T10:10:00.206Z,101969.81
2022-12-06T10:12:47.039Z,101970.50
2022-12-06T10:15:16.232Z,101975.16
2022-12-06T10:18:08.296Z,101970.94
2022-12-06T10:20:59.607Z,101978.75
2022-12-06T10:23:45.555Z,101973.53
2022-12-06T10:26:17.819Z,101965.72
2022-12-06T10:28:48.266Z,101947.56
2022-12-06T10:31:23.996Z,101945.13
2022-12-06T10:34:23.084Z,101927.53
2022-12-06T10:36:58.504Z,101921.69
2022-12-06T10:39:33.360Z,101923.41
2022-12-06T10:42:11.935Z,101930.69
2022-12-06T10:44:45.991Z,101922.19
2022-12-06T10:47:21.750Z,101917.06
2022-12-06T10:49:58.324Z,101905.78
2022-12-06T10:52:34.932Z,101909.53
2022-12-06T10:55:10.335Z,101895.72
2022-12-06T10:57:44.712Z,101898.69
2022-12-06T11:00:25.899Z,101900.03
2022-12-06T11:03:19.189Z,101890.28
2022-12-06T11:06:01.395Z,101893.28
2022-12-06T11:08:39.874Z,101896.13
2022-12-06T11:11:15.644Z,101871.16
2022-12-06T11:13:49.715Z,101874.16
2022-12-06T11:16:20.225Z,101871.19
2022-12-06T11:18:47.980Z,101865.91
2022-12-06T11:21:26.601Z,101866.88
2022-12-06T11:24:06.697Z,101873.50
2022-12-06T11:26:44.447Z,101862.81
2022-12-06T11:29:13.778Z,101858.78
2022-12-06T11:31:48.146Z,101869.56
2022-12-06T11:34:23.411Z,101866.91
2022-12-06T11:36:58.201Z,101868.38
2022-12-06T11:39:27.044Z,101868.97
2022-12-06T11:41:56.554Z,101869.94
2022-12-06T11:44:26.771Z,101875.84
2022-12-06T11:47:00.182Z,101886.66
2022-12-06T11:49:35.314Z,101895.19
2022-12-06T11:52:07.545Z,101886.69
2022-12-06T11:54:41.666Z,101887.78
2022-12-06T11:57:23.712Z,101885.53
2022-12-06T12:00:14.027Z,101891.13
2022-12-06T12:02:42.516Z,101881.50
2022-12-06T12:05:10.996Z,101878.41
2022-12-06T12:07:41.052Z,101873.41
2022-12-06T12:10:25.177Z,101865.41
2022-12-06T12:13:10.630Z,101875.34
2022-12-06T12:15:38.062Z,101879.66
2022-12-06T12:18:06.738Z,101878.16
2022-12-06T12:20:45.895Z,101867.94
2022-12-06T12:23:42.072Z,101872.13
2022-12-06T12:26:14.650Z,101855.50
2022-12-06T12:28:46.321Z,101866.13
2022-12-06T12:31:22.080Z,101861.50
2022-12-06T12:33:49.180Z,101857.72
2022-12-06T12:36:28.316Z,101852.16
2022-12-06T12:39:03.275Z,101856.63
2022-12-06T12:41:39.313Z,101858.72
2022-12-06T12:44:38.162Z,101866.53
2022-12-06T12:47:19.911Z,101860.38
2022-12-06T12:50:05.514Z,101859.97
2022-12-06T12:52:37.502Z,101860.66
2022-12-06T12:55:21.822Z,101850.59
2022-12-06T12:57:50.049Z,101854.13
2022-12-06T13:00:22.089Z,101853.28
2022-12-06T13:02:57.248Z,101840.56
2022-12-06T13:05:33.868Z,101836.78
2022-12-06T13:08:09.694Z,101839.03
2022-12-06T13:10:39.121Z,101842.09
2022-12-06T13:13:14.499Z,101839.72
2022-12-06T13:15:47.733Z,101824.09
2022-12-06T13:18:27.720Z,101827.56
2022-12-06T13:20:58.078Z,101823.22
2022-12-06T13:23:29.251Z,101813.16
2022-12-06T13:26:06.855Z,101819.84
2022-12-06T13:28:40.399Z,101820.00
2022-12-06T13:31:13.922Z,101809.69
2022-12-06T13:33:56.768Z,101807.28
2022-12-06T13:36:24.391Z,101803.41
2022-12-06T13:38:50.905Z,101817.63
2022-12-06T13:41:49.260Z,101815.97
2022-12-06T13:44:42.068Z,101817.78
2022-12-06T13:47:26.498Z,101807.88
2022-12-06T13:49:57.717Z,101804.13
2022-12-06T13:52:56.032Z,101804.38
2022-12-06T13:55:25.585Z,101807.03
2022-12-06T13:57:54.993Z,101800.75
2022-12-06T14:00:31.649Z,101798.09
2022-12-06T14:03:13.514Z,101792.66
2022-12-06T14:08:43.715Z,101798.53
2022-12-06T14:11:16.055Z,101796.59
2022-12-06T14:13:46.193Z,101788.75
2022-12-06T14:16:22.865Z,101772.53
2022-12-06T14:18:50.370Z,101787.63
2022-12-06T14:21:39.159Z,101783.44
2022-12-06T14:24:05.948Z,101778.00
2022-12-06T14:26:35.106Z,101775.88
2022-12-06T14:29:01.991Z,101776.72
2022-12-06T14:31:34.213Z,101777.56
2022-12-06T14:34:00.694Z,101762.91
2022-12-06T14:36:33.631Z,101773.38
2022-12-06T14:39:03.744Z,101775.06
2022-12-06T14:41:56.026Z,101768.22
2022-12-06T14:44:32.590Z,101774.66
2022-12-06T14:46:59.369Z,101771.72
2022-12-06T14:49:46.989Z,101766.69
2022-12-06T14:52:56.697Z,101764.84
2022-12-06T14:55:23.609Z,101757.47
2022-12-06T14:58:17.636Z,101756.91
2022-12-06T15:01:18.945Z,101760.81
2022-12-06T15:04:00.559Z,101777.28
2022-12-06T15:06:29.316Z,101778.72
2022-12-06T15:08:58.519Z,101777.44
2022-12-06T15:11:57.479Z,101777.59
2022-12-06T15:14:29.638Z,101780.66
2022-12-06T15:17:03.967Z,101777.84
2022-12-06T15:19:36.176Z,101774.53
2022-12-06T15:22:04.188Z,101777.28
2022-12-06T15:24:31.100Z,101773.41
2022-12-06T15:26:57.516Z,101776.72
2022-12-06T15:29:24.320Z,101775.06
2022-12-06T15:31:53.686Z,101774.06
2022-12-06T15:34:37.029Z,101773.13
2022-12-06T15:37:36.950Z,101768.34
2022-12-06T15:39:50.326Z,101764.47
2022-12-06T15:42:22.541Z,101766.25
2022-12-06T15:44:50.304Z,101767.53
2022-12-06T15:47:19.657Z,101766.28
2022-12-06T15:49:46.968Z,101762.22
2022-12-06T15:52:18.480Z,101762.78
2022-12-06T15:54:45.481Z,101770.03
2022-12-06T15:57:12.070Z,101761.25
2022-12-06T15:59:38.572Z,101761.13
2022-12-06T16:02:15.347Z,101770.19
2022-12-06T16:04:42.162Z,101764.88
2022-12-06T16:07:08.787Z,101768.50
2022-12-06T16:09:35.353Z,101756.50
2022-12-06T16:12:01.744Z,101757.50
2022-12-06T16:14:28.190Z,101760.00
2022-12-06T16:16:54.714Z,101758.88
2022-12-06T16:19:21.278Z,101749.78
2022-12-06T16:21:56.237Z,101746.59
2022-12-06T16:24:22.893Z,101742.41
2022-12-06T16:26:49.688Z,101741.00
2022-12-06T16:29:24.707Z,101746.16
2022-12-06T16:31:52.195Z,101743.38
2022-12-06T16:34:18.836Z,101728.72
2022-12-06T16:37:03.235Z,101747.84
2022-12-06T16:39:31.912Z,101756.38
2022-12-06T16:41:58.424Z,101755.38
2022-12-06T16:44:25.195Z,101758.59
2022-12-06T16:46:52.072Z,101755.09
2022-12-06T16:52:10.047Z,101749.25
2022-12-06T16:54:38.938Z,101749.13
2022-12-06T16:57:05.395Z,101740.75
2022-12-06T16:59:31.912Z,101732.78
2022-12-06T17:01:59.414Z,101740.19
2022-12-06T17:04:26.727Z,101740.03
2022-12-06T17:06:53.121Z,101742.69
2022-12-06T17:09:19.830Z,101731.81
2022-12-06T17:12:07.142Z,101737.78
2022-12-06T17:14:35.953Z,101733.19
2022-12-06T17:17:04.101Z,101732.91
2022-12-06T17:19:33.054Z,101733.03
2022-12-06T17:22:06.132Z,101735.50
2022-12-06T17:24:33.548Z,101732.44
2022-12-06T17:27:00.198Z,101742.63
2022-12-06T17:29:27.007Z,101735.50
2022-12-06T17:31:53.636Z,101728.69
2022-12-06T17:34:21.872Z,101733.69
2022-12-06T17:36:49.191Z,101725.03
2022-12-06T17:39:18.346Z,101731.91
2022-12-06T17:42:03.531Z,101731.06
2022-12-06T17:44:30.416Z,101721.44
2022-12-06T17:46:56.833Z,101721.31
2022-12-06T17:49:25.310Z,101719.50
2022-12-06T17:51:52.225Z,101719.34
2022-12-06T17:54:19.544Z,101724.81
2022-12-06T17:56:48.024Z,101720.88
2022-12-06T17:59:18.177Z,101724.47
2022-12-06T18:02:13.584Z,101728.25
2022-12-06T18:04:31.480Z,101732.13
2022-12-06T18:06:58.134Z,101729.75
2022-12-06T18:09:24.626Z,101726.03
2022-12-06T18:11:51.275Z,101722.66
2022-12-06T18:14:17.722Z,101726.53
2022-12-06T18:16:48.433Z,101733.66
2022-12-06T18:19:18.167Z,101731.41
2022-12-06T18:21:45.492Z,101733.22
2022-12-06T18:24:24.749Z,101729.19
2022-12-06T18:26:55.255Z,101727.19
2022-12-06T18:29:23.392Z,101732.75
2022-12-06T18:31:51.121Z,101730.78
2022-12-06T18:34:17.907Z,101738.84
2022-12-06T18:36:44.487Z,101741.50
2022-12-06T18:39:16.389Z,101739.81
2022-12-06T18:41:44.511Z,101740.22
2022-12-06T18:44:12.519Z,101740.75
2022-12-06T18:46:41.533Z,101740.94
2022-12-06T18:49:09.968Z,101729.81
2022-12-06T18:51:38.415Z,101734.44
2022-12-06T18:54:05.479Z,101735.00
2022-12-06T18:56:33.858Z,101743.50
2022-12-06T18:59:05.942Z,101745.91
2022-12-06T19:01:34.899Z,101743.94
2022-12-06T19:04:03.419Z,101743.69
2022-12-06T19:06:32.876Z,101747.75
2022-12-06T19:09:06.620Z,101738.94
2022-12-06T19:11:37.091Z,101738.13
2022-12-06T19:14:04.400Z,101739.22
2022-12-06T19:16:40.738Z,101740.22
2022-12-06T19:19:15.878Z,101736.13
2022-12-06T19:21:43.907Z,101734.63
2022-12-06T19:24:12.893Z,101748.13
2022-12-06T19:26:39.891Z,101751.88
2022-12-06T19:29:06.446Z,101759.81
2022-12-06T19:31:33.992Z,101744.50
2022-12-06T19:34:00.512Z,101739.19
2022-12-06T19:36:29.178Z,101750.94
2022-12-06T19:38:56.873Z,101745.50
2022-12-06T19:41:23.971Z,101759.31
2022-12-06T19:44:09.961Z,101741.56
2022-12-06T19:46:36.922Z,101759.91
2022-12-06T19:49:06.031Z,101759.75
2022-12-06T19:51:35.374Z,101758.78
2022-12-06T19:54:02.028Z,101737.56
2022-12-06T19:56:28.531Z,101753.88
2022-12-06T19:58:57.345Z,101748.44
2022-12-06T20:01:25.400Z,101757.63
2022-12-06T20:03:53.143Z,101747.16
2022-12-06T20:06:22.310Z,101742.28
2022-12-06T20:08:49.952Z,101744.38
2022-12-06T20:11:38.552Z,101748.13
2022-12-06T20:14:08.280Z,101745.72
2022-12-06T20:16:35.087Z,101746.28
2022-12-06T20:19:01.668Z,101750.16
2022-12-06T20:21:28.089Z,101759.34
2022-12-06T20:23:54.494Z,101745.47
2022-12-06T20:26:21.009Z,101762.00
2022-12-06T20:28:47.970Z,101763.00
2022-12-06T20:31:20.395Z,101757.03
2022-12-06T20:33:47.123Z,101750.22
2022-12-06T20:36:16.973Z,101752.09
2022-12-06T20:38:43.542Z,101754.03
2022-12-06T20:41:15.306Z,101751.13
2022-12-06T20:43:44.878Z,101755.59
2022-12-06T20:46:17.302Z,101764.38
2022-12-06T20:48:45.540Z,101773.28
2022-12-06T20:51:15.371Z,101764.38
2022-12-06T20:53:42.158Z,101766.88
2022-12-06T20:56:10.905Z,101767.72
2022-12-06T20:58:37.750Z,101761.47
2022-12-06T21:01:05.297Z,101756.84
2022-12-06T21:03:32.747Z,101765.06
2022-12-06T21:06:05.096Z,101769.66
2022-12-06T21:08:31.799Z,101743.16
2022-12-06T21:11:22.489Z,101743.88
2022-12-06T21:13:45.711Z,101737.88
2022-12-06T21:16:18.236Z,101745.97
2022-12-06T21:18:45.851Z,101742.59
2022-12-06T21:21:24.870Z,101739.66
2022-12-06T21:23:51.517Z,101736.28
2022-12-06T21:26:18.419Z,101743.94
2022-12-06T21:28:44.905Z,101736.84
2022-12-06T21:31:11.722Z,101726.94
2022-12-06T21:33:38.308Z,101738.22
2022-12-06T21:36:07.077Z,101731.09
2022-12-06T21:38:33.625Z,101725.59
2022-12-06T21:41:04.830Z,101735.75
2022-12-06T21:43:31.330Z,101751.09
2022-12-06T21:46:06.451Z,101745.38
2022-12-06T21:48:34.500Z,101753.53
2022-12-06T21:51:05.739Z,101751.88
2022-12-06T21:53:32.703Z,101754.00
2022-12-06T21:55:59.557Z,101743.94
2022-12-06T21:58:26.305Z,101737.66
2022-12-06T22:00:52.668Z,101758.06
2022-12-06T22:03:22.996Z,101747.88
2022-12-06T22:05:49.920Z,101726.91
2022-12-06T22:08:16.394Z,101743.34
2022-12-06T22:10:42.895Z,101754.47
2022-12-06T22:13:09.739Z,101752.91
2022-12-06T22:15:36.512Z,101758.34
2022-12-06T22:18:03.255Z,101764.50
2022-12-06T22:20:29.694Z,101768.53
2022-12-06T22:22:56.250Z,101759.06
2022-12-06T22:25:22.691Z,101766.88
2022-12-06T22:27:51.664Z,101760.28
2022-12-06T22:30:18.021Z,101762.94
2022-12-06T22:32:44.427Z,101762.63
2022-12-06T22:35:10.803Z,101769.25
2022-12-06T22:37:37.205Z,101763.91
2022-12-06T22:40:04.114Z,101779.06
2022-12-06T22:42:34.259Z,101775.25
2022-12-06T22:45:00.681Z,101776.63
2022-12-06T22:47:27.157Z,101786.59
2022-12-06T22:49:53.552Z,101776.38
2022-12-06T22:52:20.009Z,101760.19
2022-12-06T22:54:46.681Z,101774.13
2022-12-06T22:57:14.160Z,101766.34
2022-12-06T22:59:40.532Z,101767.66
2022-12-06T23:02:07.008Z,101762.38
2022-12-06T23:04:33.663Z,101759.16
2022-12-06T23:07:00.161Z,101766.94
2022-12-06T23:09:26.645Z,101781.16
2022-12-06T23:11:53.049Z,101776.72
2022-12-06T23:14:19.441Z,101771.22
2022-12-06T23:16:46.147Z,101767.84
2022-12-06T23:19:12.852Z,101751.44
2022-12-06T23:21:40.802Z,101756.25
2022-12-06T23:24:11.003Z,101762.47
2022-12-06T23:26:43.438Z,101763.44
2022-12-06T23:29:10.170Z,101762.47
2022-12-06T23:31:39.478Z,101763.06
2022-12-06T23:34:17.623Z,101767.53
2022-12-06T23:36:44.568Z,101770.19
2022-12-06T23:39:11.860Z,101771.72
2022-12-06T23:41:38.696Z,101766.88
2022-12-06T23:44:06.579Z,101759.53
2022-12-06T23:46:36.131Z,101759.97
2022-12-06T23:49:03.771Z,101764.03
2022-12-06T23:51:37.101Z,101755.97
2022-12-06T23:54:05.886Z,101757.63
2022-12-06T23:56:34.392Z,101747.31
2022-12-06T23:59:02.740Z,101756.78
